Flight Track Log - Related Links

Times and Time Zones

All times are in EDT time to prevent confusion due to time zone crossing. See the GJS3649 flight status page for this flight to view local times or setup timezone preferences in your user account.

Time Position Orientation Groundspeed Altitude Reporting Facility
EDT Latitude Longitude Course Direction KTS MPH feet Rate Location/Type
Wed 12:42:53 PM 42.0000 -87.9333 26° Northeast 158 182 1,600  Level Chicago TRACON
Wed 12:43:53 PM 42.0500 -87.9000 26° Northeast 228 262 3,500 1,960 Climbing Chicago TRACON
Wed 12:44:34 PM 42.0744 -87.8667 45° Northeast 221 254 4,900 1,922 Climbing Chicago Center
Wed 12:45:36 PM 42.0831 -87.7592 84° East 283 326 6,800 2,129 Climbing Chicago Center
Wed 12:47:40 PM 42.0931 -87.5231 87° East 322 371 11,500 2,129 Climbing Chicago Center
Wed 12:48:42 PM 42.0983 -87.3961 87° East 338 389 13,400 1,839 Climbing Chicago Center
Wed 12:49:44 PM 42.1039 -87.2631 87° East 354 407 15,300 2,177 Climbing Chicago Center
Wed 12:50:46 PM 42.1108 -87.0969 87° East 370 426 17,900 2,081 Climbing Chicago Center
Wed 12:51:48 PM 42.1164 -86.9594 87° East 370 426 19,600 1,548 Climbing Chicago Center
Wed 12:52:50 PM 42.1233 -86.8153 86° East 380 437 21,100 1,463 Climbing Chicago Center
Wed 12:53:51 PM 42.1261 -86.6636 89° East 401 461 22,600 1,463 Climbing Chicago Center
Wed 12:54:53 PM 42.1483 -86.5136 79° East 408 470 24,100 1,452 Climbing Chicago Center
Wed 12:55:55 PM 42.1803 -86.3611 74° East 421 484 25,600 1,452 Climbing Chicago Center
Wed 12:56:57 PM 42.2133 -86.2069 74° East 426 490 27,100 1,306 Climbing Chicago Center
Wed 12:57:59 PM 42.2503 -86.0167 75° East 436 502 28,300 850 Climbing Chicago Center
Wed 12:59:04 PM 42.2783 -85.8658 76° East 448 516 28,900 709 Climbing Chicago Center
Wed 01:00:06 PM 42.3142 -85.6556 77° East 478 550 29,800 774 Climbing Chicago Center
Wed 01:01:08 PM 42.3411 -85.4742 79° East 495 570 30,500 677 Climbing Chicago Center
Wed 01:02:10 PM 42.3508 -85.2850 86° East 505 581 31,200 581 Climbing Chicago Center
Wed 01:03:12 PM 42.3744 -85.0925 81° East 516 594 31,700 532 Climbing Chicago Center
Wed 01:04:14 PM 42.4019 -84.8978 79° East 525 604 32,300 629 Climbing Chicago Center
Wed 01:05:16 PM 42.4378 -84.6567 79° East 539 620 33,000 339 Climbing Chicago Center
Wed 01:06:18 PM 42.4694 -84.4511 78° East 553 636 33,000  Level Chicago Center
Wed 01:07:20 PM 42.5014 -84.2400 78° East 571 657 33,000  Level Chicago Center
Wed 01:08:24 PM 42.5242 -83.9981 83° East 573 659 33,000  Level Cleveland Center
Wed 01:10:24 PM 42.5319 -83.5672 88° East 574 661 33,000 100 Level Cleveland Center
Wed 01:11:24 PM 42.5186 -83.3467 95° East 574 661 33,300 350 Climbing Cleveland Center
Wed 01:12:24 PM 42.5067 -83.1492 95° East 579 666 33,700 350 Climbing Cleveland Center
Wed 01:13:24 PM 42.4925 -82.9289 95° East 579 666 34,000 150 Climbing Cleveland Center
Wed 01:14:24 PM 42.5031 -82.7094 86° East 579 666 34,000  Level Cleveland Center
Wed 01:15:24 PM 42.5361 -82.4908 78° East 579 666 34,000 200 Level Cleveland Center
Wed 01:16:24 PM 42.5664 -82.2803 79° East 579 666 34,400 500 Climbing Cleveland Center
Wed 01:17:24 PM 42.5922 -82.0667 81° East 579 666 35,000 300 Climbing Cleveland Center
Wed 01:18:24 PM 42.5950 -81.8494 89° East 579 666 35,000  Level Cleveland Center
Wed 01:19:24 PM 42.6014 -81.6297 88° East 574 661 35,000  Level Cleveland Center
Wed 01:20:23 PM 42.6031 -81.4153 89° East 568 654 35,000  Level Cleveland Center
Wed 01:21:24 PM 42.6067 -81.1811 89° East 562 647 35,000  Level Cleveland Center
Wed 01:22:24 PM 42.6097 -80.9697 89° East 562 647 35,000  Level Cleveland Center
Wed 01:23:24 PM 42.6103 -80.7525 90° East 556 640 35,000  Level Cleveland Center
Wed 01:24:24 PM 42.6122 -80.5408 89° East 556 640 35,000  Level Cleveland Center
Wed 01:25:24 PM 42.6161 -80.3264 89° East 563 648 35,000  Level Cleveland Center
Wed 01:26:24 PM 42.6178 -80.1119 89° East 568 654 35,000  Level Cleveland Center
Wed 01:27:24 PM 42.6186 -79.9006 90° East 563 648 35,000  Level Cleveland Center
Wed 01:28:24 PM 42.6194 -79.6889 90° East 563 648 35,000  Level Cleveland Center
Wed 01:29:24 PM 42.6197 -79.4772 90° East 563 648 35,000  Level Cleveland Center
Wed 01:30:24 PM 42.6217 -79.2683 89° East 563 648 35,000  Level Cleveland Center
Wed 01:31:24 PM 42.6189 -79.0597 91° East 558 642 35,000  Level Cleveland Center
Wed 01:32:24 PM 42.6181 -78.8536 90° East 547 629 35,000  Level Cleveland Center
Wed 01:33:24 PM 42.6172 -78.6533 90° East 541 623 35,000  Level Cleveland Center
Wed 01:34:24 PM 42.6136 -78.4531 91° East 531 611 35,000  Level Cleveland Center
Wed 01:35:24 PM 42.6119 -78.2586 91° East 526 605 35,000  Level Cleveland Center
Wed 01:36:24 PM 42.6078 -78.0611 92° East 521 600 35,000  Level Cleveland Center
Wed 01:37:24 PM 42.6056 -77.8667 91° East 521 600 35,000  Level Cleveland Center
Wed 01:38:24 PM 42.6053 -77.6889 90° East 516 594 35,000  Level Cleveland Center
Wed 01:39:24 PM 42.6022 -77.4914 91° East 516 594 35,000  Level Cleveland Center
Wed 01:41:54 PM 42.5892 -76.9783 92° East 515 593 35,000  Level Boston Center
Wed 01:42:54 PM 42.5842 -76.7861 92° East 515 593 35,000  Level Boston Center
Wed 01:43:54 PM 42.5789 -76.5911 92° East 515 593 35,000 -50 Level Boston Center
Wed 01:44:54 PM 42.5731 -76.3989 92° East 515 593 34,900 -600 Descending Boston Center
Wed 01:45:54 PM 42.5692 -76.2097 92° East 515 593 33,800 -1,050 Descending Boston Center
Wed 01:46:54 PM 42.5625 -76.0317 93° East 515 593 32,800 -950 Descending Boston Center
Wed 01:47:54 PM 42.5517 -75.8422 94° East 515 593 31,900 -950 Descending Boston Center
Wed 01:48:54 PM 42.5236 -75.6547 101° East 504 580 30,900 -1,250 Descending Boston Center
Wed 01:49:54 PM 42.4975 -75.4675 101° East 505 581 29,400 -1,750 Descending Boston Center
Wed 01:50:54 PM 42.4731 -75.2861 100° East 505 581 27,400 -1,557 Descending Boston Center
Wed 01:52:05 PM 42.4481 -75.1133 101° East 489 563 26,000 -1,343 Descending Boston Center
Wed 01:53:17 PM 42.4133 -74.9036 103° East 472 543 24,200 -1,985 Descending Boston Center
Wed 01:54:18 PM 42.3758 -74.7025 104° East 472 543 21,600 -2,380 Descending Boston Center
Wed 01:55:18 PM 42.3350 -74.5439 109° East 459 528 19,400 -1,300 Descending Boston Center
Wed 01:56:18 PM 42.2964 -74.3714 107° East 437 503 19,000 -200 Descending Boston Center
Wed 01:57:18 PM 42.2572 -74.2214 109° East 422 486 19,000 -100 Level Boston Center
Wed 01:58:18 PM 42.2258 -74.0858 107° East 427 491 18,800 -1,850 Descending Boston Center
Wed 01:59:18 PM 42.2658 -73.9103 73° East 421 484 15,300 -3,200 Descending Boston Center
Wed 02:00:18 PM 42.3111 -73.7906 63° Northeast 402 463 12,400 -2,150 Descending Boston Center
Wed 02:01:18 PM 42.3544 -73.6481 68° East 377 434 11,000 -700 Descending Boston Center
Wed 02:02:18 PM 42.3431 -73.5244 97° East 353 406 11,000  Level Boston Center
Wed 02:03:18 PM 42.3214 -73.3919 102° East 353 406 11,000  Level Boston Center
Wed 02:04:18 PM 42.2744 -73.2650 117° Southeast 377 434 11,000 -454 Level Boston Center
Wed 02:05:17 PM 42.2122 -73.2053 145° Southeast 355 409 10,100 -1,433 Descending Boston Center
Wed 02:06:32 PM 42.1506 -73.0700 122° Southeast 302 348 7,800 -1,853 Descending Boston Center
Wed 02:07:33 PM 42.1678 -72.9583 78° East 300 345 5,900 -1,328 Descending Boston Center
Wed 02:08:34 PM 42.1808 -72.8492 81° East 299 344 5,100 -393 Descending Boston Center
Wed 02:09:35 PM 42.1978 -72.7344 79° East 295 339 5,100 -248 Level Boston Center
Wed 02:10:35 PM 42.1981 -72.6306 90° East 282 325 4,600 -645 Descending Boston Center
Wed 02:11:36 PM 42.1564 -72.5550 127° Southeast 230 265 3,800 -984 Descending Boston Center
Wed 02:12:37 PM 42.1150 -72.4961 133° Southeast 221 254 2,600 -672 Descending Boston Center
Wed 02:13:32 PM 42.0731 -72.5100 194° South 184 212 2,500  Descending Boston Center
Wed 02:14:32 PM 42.0378 -72.5575 225° Southwest 170 196 2,600 -298 Climbing Boston Center
Wed 02:15:33 PM 42.0086 -72.5939 223° Southwest 143 165 1,900 -689 Descending Boston Center
Wed 02:16:34 PM 41.9856 -72.6272 227° Southwest 131 151 1,200 -639 Descending Boston Center
Wed 02:17:35 PM 41.9583 -72.6633 225° Southwest 132 152 600 -590 Descending Boston Center
Wed 02:19:00 PM 41.9333 -72.6833 205° Southwest  Level FlightAware Approximate
Wed 02:26:00 PM 41.9392 -72.6834 205° Southwest  Level Estimated
Wed 02:27:00 PM 41.9333 -72.6833 205° Southwest  Level FlightAware Approximate

Login

Don't have an account? Register now (free) for customized features, flight alerts, and more!